createdAt,value
2023-02-27T00:00:25.518Z,-1.01
2023-02-27T00:03:28.588Z,-1.03
2023-02-27T00:06:31.789Z,-1.05
2023-02-27T00:09:34.760Z,-0.97
2023-02-27T00:12:40.568Z,-1.04
2023-02-27T00:15:46.719Z,-1.03
2023-02-27T00:18:50.392Z,-0.97
2023-02-27T00:21:53.484Z,-0.90
2023-02-27T00:24:57.227Z,-0.81
2023-02-27T00:28:01.395Z,-0.74
2023-02-27T00:31:05.396Z,-0.62
2023-02-27T00:34:08.960Z,-0.52
2023-02-27T00:37:12.573Z,-0.55
2023-02-27T00:40:16.243Z,-0.55
2023-02-27T00:43:19.120Z,-0.48
2023-02-27T00:46:22.060Z,-0.42
2023-02-27T00:49:27.314Z,-0.44
2023-02-27T00:52:30.347Z,-0.39
2023-02-27T00:55:34.725Z,-0.43
2023-02-27T00:58:37.517Z,-0.37
2023-02-27T01:01:40.638Z,-0.36
2023-02-27T01:04:43.910Z,-0.35
2023-02-27T01:07:46.767Z,-0.17
2023-02-27T01:10:50.474Z,-0.07
2023-02-27T01:13:53.493Z,0.15
2023-02-27T01:16:56.778Z,0.45
2023-02-27T01:20:00.635Z,0.75
2023-02-27T01:23:03.686Z,0.93
2023-02-27T01:26:07.272Z,1.06
2023-02-27T01:29:10.575Z,1.23
2023-02-27T01:32:14.971Z,1.53
2023-02-27T01:35:18.802Z,1.75
2023-02-27T01:38:21.890Z,1.99
2023-02-27T01:41:25.391Z,2.20
2023-02-27T01:44:32.097Z,2.11
2023-02-27T01:47:36.652Z,2.10
2023-02-27T01:50:55.455Z,2.40
2023-02-27T01:53:59.937Z,2.15
2023-02-27T01:57:07.243Z,2.52
2023-02-27T02:00:11.086Z,2.48
2023-02-27T02:03:26.267Z,2.28
2023-02-27T02:06:32.329Z,2.32
2023-02-27T02:09:40.529Z,2.21
2023-02-27T02:12:45.802Z,2.26
2023-02-27T02:16:06.986Z,2.34
2023-02-27T02:19:39.659Z,2.38
2023-02-27T02:23:21.937Z,2.51
2023-02-27T02:26:39.277Z,2.68
2023-02-27T02:30:20.456Z,3.08
2023-02-27T02:33:32.616Z,3.22
2023-02-27T02:36:53.626Z,3.64
2023-02-27T02:40:15.118Z,3.72
2023-02-27T02:43:30.886Z,4.37
2023-02-27T02:46:48.019Z,4.59
2023-02-27T02:50:12.565Z,4.58
2023-02-27T02:53:41.827Z,4.53
2023-02-27T02:57:01.339Z,4.45
2023-02-27T03:00:08.360Z,4.52
2023-02-27T03:03:28.014Z,4.70
2023-02-27T03:06:37.983Z,4.85
2023-02-27T03:09:55.676Z,5.12
2023-02-27T03:13:12.507Z,5.00
2023-02-27T03:16:24.289Z,4.42
2023-02-27T03:19:35.124Z,4.17
2023-02-27T03:22:42.927Z,4.37
2023-02-27T03:25:47.340Z,4.75
2023-02-27T03:29:01.610Z,5.01
2023-02-27T03:32:14.139Z,5.14
2023-02-27T03:35:17.821Z,5.20
2023-02-27T03:38:29.901Z,4.47
2023-02-27T03:42:13.143Z,5.09
2023-02-27T03:45:45.651Z,5.50
2023-02-27T03:48:50.322Z,5.70
2023-02-27T03:51:54.813Z,5.82
2023-02-27T03:55:12.062Z,6.18
2023-02-27T03:58:16.333Z,6.39
2023-02-27T04:01:20.103Z,6.16
2023-02-27T04:04:24.572Z,5.86
2023-02-27T04:08:12.553Z,5.36
2023-02-27T04:11:36.881Z,5.13
2023-02-27T04:15:10.441Z,5.18
2023-02-27T04:18:43.156Z,5.03
2023-02-27T04:22:17.713Z,4.86
2023-02-27T04:25:30.405Z,4.47
2023-02-27T04:28:43.089Z,4.78
2023-02-27T04:31:50.529Z,5.02
2023-02-27T04:35:16.630Z,5.05
2023-02-27T04:38:54.257Z,5.28
2023-02-27T04:42:12.173Z,4.80
2023-02-27T04:45:19.450Z,4.05
2023-02-27T04:48:30.735Z,3.81
2023-02-27T04:51:45.093Z,3.59
2023-02-27T04:55:04.390Z,3.25
2023-02-27T04:58:15.872Z,3.05
2023-02-27T05:01:30.873Z,3.14
2023-02-27T05:04:38.897Z,3.34
2023-02-27T05:08:11.778Z,3.55
2023-02-27T05:11:26.693Z,3.69
2023-02-27T05:14:37.744Z,4.06
2023-02-27T05:17:41.299Z,4.39
2023-02-27T05:21:00.188Z,4.45
2023-02-27T05:24:25.566Z,4.46
2023-02-27T05:27:51.616Z,4.24
2023-02-27T05:31:04.191Z,4.20
2023-02-27T05:34:24.783Z,4.87
2023-02-27T05:38:05.177Z,5.27
2023-02-27T05:41:17.322Z,5.26
2023-02-27T05:44:32.368Z,5.47
2023-02-27T05:47:40.893Z,5.57
2023-02-27T05:50:45.771Z,5.43
2023-02-27T05:53:55.648Z,5.34
2023-02-27T05:57:00.489Z,5.54
2023-02-27T06:00:22.029Z,5.40
2023-02-27T06:03:27.941Z,5.12
2023-02-27T06:06:32.100Z,5.07
2023-02-27T06:09:35.401Z,5.21
2023-02-27T06:12:39.376Z,5.14
2023-02-27T06:15:42.294Z,5.03
2023-02-27T06:18:45.483Z,4.95
2023-02-27T06:21:49.361Z,4.68
2023-02-27T06:24:53.391Z,4.48
2023-02-27T06:27:56.343Z,4.15
2023-02-27T06:30:59.712Z,4.33
2023-02-27T06:34:03.445Z,4.26
2023-02-27T06:37:07.118Z,4.37
2023-02-27T06:40:14.696Z,4.53
2023-02-27T06:43:18.872Z,4.51
2023-02-27T06:46:22.733Z,4.68
2023-02-27T06:49:26.740Z,4.82
2023-02-27T06:52:30.347Z,4.81
2023-02-27T06:55:34.064Z,4.77
2023-02-27T06:58:37.589Z,4.80
2023-02-27T07:01:41.692Z,4.82
2023-02-27T07:04:45.530Z,4.79
2023-02-27T07:07:48.897Z,4.89
2023-02-27T07:10:51.898Z,4.85
2023-02-27T07:13:55.888Z,4.75
2023-02-27T07:16:59.974Z,4.71
2023-02-27T07:20:03.456Z,4.56
2023-02-27T07:23:06.372Z,4.43
2023-02-27T07:26:09.618Z,4.08
2023-02-27T07:29:15.334Z,3.86
2023-02-27T07:32:18.318Z,3.68
2023-02-27T07:35:21.696Z,3.63
2023-02-27T07:38:25.350Z,3.45
2023-02-27T07:41:30.913Z,3.37
2023-02-27T07:44:38.297Z,3.24
2023-02-27T07:47:42.409Z,3.37
2023-02-27T07:50:46.092Z,3.47
2023-02-27T07:53:48.968Z,3.58
2023-02-27T07:56:51.935Z,3.77
2023-02-27T07:59:55.155Z,3.82
2023-02-27T08:02:58.150Z,3.66
2023-02-27T08:06:02.439Z,3.93
2023-02-27T08:09:06.354Z,4.06
2023-02-27T08:12:09.313Z,3.87
2023-02-27T08:15:12.917Z,3.71
2023-02-27T08:18:15.771Z,3.57
2023-02-27T08:21:19.494Z,3.52
2023-02-27T08:24:23.241Z,3.27
2023-02-27T08:27:26.642Z,3.11
2023-02-27T08:30:29.809Z,3.28
2023-02-27T08:33:35.231Z,3.46
2023-02-27T08:36:39.958Z,3.54
2023-02-27T08:39:42.887Z,3.18
2023-02-27T08:42:46.201Z,2.98
2023-02-27T08:45:50.834Z,2.80
2023-02-27T08:48:53.795Z,2.80
2023-02-27T08:51:56.719Z,2.78
2023-02-27T08:55:00.357Z,2.77
2023-02-27T08:58:04.555Z,2.73
2023-02-27T09:01:08.229Z,2.61
2023-02-27T09:04:12.315Z,2.57
2023-02-27T09:07:15.236Z,2.98
2023-02-27T09:10:18.707Z,2.73
2023-02-27T09:13:22.870Z,2.52
2023-02-27T09:16:26.064Z,2.59
2023-02-27T09:19:30.016Z,2.67
2023-02-27T09:22:32.993Z,2.69
2023-02-27T09:25:35.872Z,2.41
2023-02-27T09:28:42.147Z,2.03
2023-02-27T09:31:45.227Z,1.84
2023-02-27T09:34:48.922Z,2.00
2023-02-27T09:37:52.798Z,2.10
2023-02-27T09:40:58.283Z,1.93
2023-02-27T09:44:02.224Z,1.48
2023-02-27T09:47:10.942Z,1.28
2023-02-27T09:50:48.617Z,1.02
2023-02-27T09:53:57.931Z,0.89
2023-02-27T09:57:07.318Z,0.74
2023-02-27T10:00:37.473Z,0.56
2023-02-27T10:04:11.079Z,0.24
2023-02-27T10:07:38.762Z,0.02
2023-02-27T10:10:55.549Z,-0.21
2023-02-27T10:14:11.294Z,-0.25
2023-02-27T10:17:38.875Z,-0.27
2023-02-27T10:20:56.395Z,-0.43
2023-02-27T10:24:02.817Z,-0.51
2023-02-27T10:27:14.681Z,-0.47
2023-02-27T10:30:29.844Z,-0.46
2023-02-27T10:33:42.280Z,-0.56
2023-02-27T10:36:49.484Z,-0.60
2023-02-27T10:39:57.846Z,-0.68
2023-02-27T10:43:06.226Z,-0.77
2023-02-27T10:46:32.249Z,-0.79
2023-02-27T10:49:38.392Z,-0.80
2023-02-27T10:52:52.875Z,-0.88
2023-02-27T10:56:03.781Z,-0.88
2023-02-27T10:59:17.562Z,-0.90
2023-02-27T11:02:25.950Z,-1.06
2023-02-27T11:05:33.035Z,-1.34
2023-02-27T11:08:37.226Z,-1.51
2023-02-27T11:11:41.056Z,-1.48
2023-02-27T11:14:57.137Z,-1.53
2023-02-27T11:18:25.713Z,-1.48
2023-02-27T11:21:31.448Z,-1.60
2023-02-27T11:24:36.003Z,-1.70
2023-02-27T11:27:38.882Z,-1.89
2023-02-27T11:30:44.822Z,-1.83
2023-02-27T11:34:40.838Z,-2.03
2023-02-27T11:37:50.528Z,-2.02
2023-02-27T11:41:06.258Z,-2.08
2023-02-27T11:44:21.603Z,-2.18
2023-02-27T11:47:40.768Z,-2.55
2023-02-27T11:51:06.211Z,-2.67
2023-02-27T11:54:36.660Z,-2.63
2023-02-27T11:57:44.176Z,-2.69
2023-02-27T12:01:04.633Z,-2.72
2023-02-27T12:04:28.785Z,-2.74
2023-02-27T12:07:41.458Z,-2.69
2023-02-27T12:10:59.340Z,-2.80
2023-02-27T12:14:41.863Z,-2.84
2023-02-27T12:17:58.472Z,-2.85
2023-02-27T12:21:39.912Z,-2.96
2023-02-27T12:25:34.479Z,-3.25
2023-02-27T12:29:10.086Z,-3.45
2023-02-27T12:32:42.621Z,-3.46
2023-02-27T12:35:50.492Z,-3.42
2023-02-27T12:38:55.204Z,-3.63
2023-02-27T12:42:04.786Z,-3.61
2023-02-27T12:45:28.910Z,-3.67
2023-02-27T12:48:38.831Z,-3.65
2023-02-27T12:51:49.691Z,-3.84
2023-02-27T12:55:16.293Z,-3.89
2023-02-27T12:58:30.524Z,-4.01
2023-02-27T13:01:57.327Z,-4.02
2023-02-27T13:05:35.688Z,-3.97
2023-02-27T13:09:05.052Z,-3.92
2023-02-27T13:12:35.501Z,-3.99
2023-02-27T13:15:50.082Z,-4.17
2023-02-27T13:19:18.645Z,-4.21
2023-02-27T13:22:44.164Z,-4.19
2023-02-27T13:25:51.468Z,-4.23
2023-02-27T13:28:56.907Z,-4.16
2023-02-27T13:32:41.573Z,-4.10
2023-02-27T13:36:14.363Z,-4.35
2023-02-27T13:39:56.776Z,-4.54
2023-02-27T13:43:29.611Z,-4.62
2023-02-27T13:46:34.598Z,-4.68
2023-02-27T13:49:44.610Z,-4.72
2023-02-27T13:52:48.553Z,-4.70
2023-02-27T13:56:19.494Z,-4.85
2023-02-27T13:59:32.379Z,-5.00
2023-02-27T14:02:57.974Z,-4.97
2023-02-27T14:06:07.099Z,-4.88
2023-02-27T14:09:15.422Z,-4.93
2023-02-27T14:12:48.611Z,-4.99
2023-02-27T14:15:55.935Z,-5.11
2023-02-27T14:19:25.110Z,-5.05
2023-02-27T14:22:31.368Z,-5.22
2023-02-27T14:25:41.332Z,-5.32
2023-02-27T14:28:52.227Z,-5.36
2023-02-27T14:31:57.794Z,-5.31
2023-02-27T14:35:03.795Z,-5.40
2023-02-27T14:38:12.901Z,-5.33
2023-02-27T14:41:41.817Z,-5.14
2023-02-27T14:44:47.911Z,-4.97
2023-02-27T14:47:51.987Z,-4.95
2023-02-27T14:50:58.818Z,-5.04
2023-02-27T14:54:04.362Z,-5.17
2023-02-27T14:57:08.314Z,-5.29
2023-02-27T15:00:38.005Z,-5.38
2023-02-27T15:03:47.294Z,-5.46
2023-02-27T15:06:52.824Z,-5.44
2023-02-27T15:09:59.941Z,-5.61
2023-02-27T15:13:04.135Z,-5.62
2023-02-27T15:16:23.198Z,-5.56
2023-02-27T15:19:29.843Z,-5.68
2023-02-27T15:22:40.190Z,-5.70
2023-02-27T15:25:44.056Z,-5.67
2023-02-27T15:28:49.685Z,-5.77
2023-02-27T15:31:53.360Z,-5.70
2023-02-27T15:35:03.527Z,-5.78
2023-02-27T15:38:08.148Z,-5.69
2023-02-27T15:41:14.496Z,-5.69
2023-02-27T15:44:21.808Z,-5.60
2023-02-27T15:47:32.041Z,-5.52
2023-02-27T15:50:39.600Z,-5.60
2023-02-27T15:53:50.619Z,-5.70
2023-02-27T15:56:54.583Z,-5.64
2023-02-27T15:59:59.413Z,-5.51
2023-02-27T16:03:02.733Z,-5.56
2023-02-27T16:06:22.061Z,-5.76
2023-02-27T16:09:37.571Z,-6.01
2023-02-27T16:12:43.486Z,-6.10
2023-02-27T16:16:03.051Z,-6.09
2023-02-27T16:19:36.243Z,-6.00
2023-02-27T16:23:15.432Z,-6.05
2023-02-27T16:26:39.075Z,-6.09
2023-02-27T16:29:45.685Z,-6.08
2023-02-27T16:32:48.829Z,-6.13
2023-02-27T16:36:15.617Z,-6.05
2023-02-27T16:39:19.280Z,-5.93
2023-02-27T16:42:22.876Z,-6.04
2023-02-27T16:45:28.558Z,-6.06
2023-02-27T16:48:32.236Z,-6.15
2023-02-27T16:51:36.003Z,-6.25
2023-02-27T16:54:39.931Z,-6.18
2023-02-27T16:57:43.505Z,-5.96
2023-02-27T17:00:46.814Z,-5.98
2023-02-27T17:03:50.560Z,-6.07
2023-02-27T17:06:54.958Z,-6.06
2023-02-27T17:09:57.989Z,-5.95
2023-02-27T17:13:01.440Z,-6.11
2023-02-27T17:16:06.593Z,-6.18
2023-02-27T17:19:10.527Z,-6.35
2023-02-27T17:22:15.689Z,-6.44
2023-02-27T17:25:19.734Z,-6.36
2023-02-27T17:28:23.948Z,-6.30
2023-02-27T17:31:27.594Z,-6.44
2023-02-27T17:34:31.221Z,-6.41
2023-02-27T17:37:35.238Z,-6.55
2023-02-27T17:40:39.861Z,-6.76
2023-02-27T17:43:43.563Z,-6.86
2023-02-27T17:46:47.173Z,-6.77
2023-02-27T17:49:51.468Z,-6.56
2023-02-27T17:52:54.789Z,-6.50
2023-02-27T17:55:58.059Z,-6.39
2023-02-27T17:59:00.960Z,-6.26
2023-02-27T18:02:04.531Z,-6.25
2023-02-27T18:05:08.469Z,-6.39
2023-02-27T18:08:12.039Z,-6.53
2023-02-27T18:11:19.518Z,-6.61
2023-02-27T18:14:22.474Z,-6.67
2023-02-27T18:17:26.394Z,-6.78
2023-02-27T18:20:30.048Z,-6.84
2023-02-27T18:23:34.788Z,-6.81
2023-02-27T18:26:38.193Z,-6.77
2023-02-27T18:29:41.983Z,-6.94
2023-02-27T18:32:45.864Z,-7.05
2023-02-27T18:35:48.781Z,-7.06
2023-02-27T18:38:51.942Z,-7.06
2023-02-27T18:41:55.643Z,-7.08
2023-02-27T18:44:59.323Z,-7.14
2023-02-27T18:48:02.996Z,-7.14
2023-02-27T18:51:12.835Z,-6.98
2023-02-27T18:54:16.816Z,-7.07
2023-02-27T18:57:20.042Z,-7.13
2023-02-27T19:00:24.712Z,-7.17
2023-02-27T19:03:28.675Z,-7.12
2023-02-27T19:06:41.331Z,-6.98
2023-02-27T19:09:44.768Z,-6.87
2023-02-27T19:12:51.328Z,-6.80
2023-02-27T19:15:55.529Z,-6.85
2023-02-27T19:18:59.877Z,-6.94
2023-02-27T19:22:03.034Z,-6.80
2023-02-27T19:25:06.374Z,-6.75
2023-02-27T19:28:12.801Z,-6.74
2023-02-27T19:31:16.428Z,-6.85
2023-02-27T19:34:20.740Z,-7.00
2023-02-27T19:37:24.322Z,-7.07
2023-02-27T19:40:28.710Z,-7.13
2023-02-27T19:43:31.859Z,-7.02
2023-02-27T19:46:35.915Z,-7.09
2023-02-27T19:49:39.505Z,-7.15
2023-02-27T19:52:43.027Z,-7.13
2023-02-27T19:55:46.017Z,-7.00
2023-02-27T19:58:50.731Z,-7.08
2023-02-27T20:01:54.429Z,-7.26
2023-02-27T20:04:58.563Z,-7.08
2023-02-27T20:08:02.119Z,-7.19
2023-02-27T20:11:06.408Z,-7.19
2023-02-27T20:14:10.189Z,-7.22
2023-02-27T20:17:14.839Z,-7.18
2023-02-27T20:20:19.426Z,-7.20
2023-02-27T20:23:23.659Z,-7.07
2023-02-27T20:26:34.150Z,-7.01
2023-02-27T20:29:38.147Z,-7.41
2023-02-27T20:32:41.220Z,-7.40
2023-02-27T20:35:44.878Z,-7.53
2023-02-27T20:38:47.861Z,-7.37
2023-02-27T20:41:51.679Z,-7.46
2023-02-27T20:44:54.612Z,-7.48
2023-02-27T20:47:58.528Z,-7.38
2023-02-27T20:51:08.163Z,-7.59
2023-02-27T20:54:17.073Z,-7.45
2023-02-27T20:57:20.820Z,-7.30
2023-02-27T21:00:26.634Z,-7.22
2023-02-27T21:03:38.327Z,-7.10
2023-02-27T21:06:43.159Z,-7.23
2023-02-27T21:09:46.832Z,-7.24
2023-02-27T21:12:50.165Z,-7.36
2023-02-27T21:15:53.118Z,-7.61
2023-02-27T21:18:57.474Z,-7.59
2023-02-27T21:22:00.703Z,-7.52
2023-02-27T21:25:03.880Z,-7.61
2023-02-27T21:28:07.686Z,-7.72
2023-02-27T21:31:11.667Z,-7.66
2023-02-27T21:34:19.186Z,-7.70
2023-02-27T21:37:23.224Z,-7.67
2023-02-27T21:40:26.808Z,-7.76
2023-02-27T21:43:29.979Z,-7.92
2023-02-27T21:46:34.389Z,-7.97
2023-02-27T21:49:40.079Z,-8.04
2023-02-27T21:52:44.050Z,-8.09
2023-02-27T21:55:47.956Z,-8.08
2023-02-27T21:58:51.615Z,-8.16
2023-02-27T22:01:56.720Z,-8.24
2023-02-27T22:04:59.728Z,-8.28
2023-02-27T22:08:03.492Z,-8.35
2023-02-27T22:11:07.331Z,-8.34
2023-02-27T22:14:11.495Z,-8.52
2023-02-27T22:17:14.413Z,-8.74
2023-02-27T22:20:17.853Z,-8.73
2023-02-27T22:23:21.788Z,-8.70
2023-02-27T22:26:29.075Z,-8.84
2023-02-27T22:29:32.811Z,-8.92
2023-02-27T22:32:40.053Z,-8.81
2023-02-27T22:35:43.572Z,-8.94
2023-02-27T22:38:46.642Z,-8.87
2023-02-27T22:41:49.868Z,-9.03
2023-02-27T22:44:52.710Z,-9.27
2023-02-27T22:47:55.625Z,-9.42
2023-02-27T22:51:03.496Z,-9.45
2023-02-27T22:54:07.960Z,-9.42
2023-02-27T22:57:12.407Z,-9.52
2023-02-27T23:00:16.236Z,-9.55
2023-02-27T23:03:19.858Z,-9.57
2023-02-27T23:06:37.810Z,-9.38
2023-02-27T23:09:41.061Z,-9.37
2023-02-27T23:12:44.241Z,-9.50
2023-02-27T23:15:48.429Z,-9.53
2023-02-27T23:18:55.044Z,-9.43
2023-02-27T23:21:58.279Z,-9.44
2023-02-27T23:25:03.884Z,-9.56
2023-02-27T23:28:09.341Z,-9.55
2023-02-27T23:31:12.181Z,-9.48
2023-02-27T23:34:16.126Z,-9.39
2023-02-27T23:37:19.801Z,-9.33
2023-02-27T23:40:26.460Z,-9.28
2023-02-27T23:43:29.317Z,-9.28
2023-02-27T23:46:32.366Z,-9.26
2023-02-27T23:49:35.876Z,-9.22
2023-02-27T23:52:39.736Z,-9.13
2023-02-27T23:55:44.333Z,-9.05
2023-02-27T23:58:49.499Z,-9.02
